Bow Kiso — 3EPY3 — position and weather

sailwx.info

Track history (hours):
 
Tides and Currents Weather Stations Pressure Air Temp Water Temp Dewpoint Dewpoint Depression Visibility Wind Speed Wind Dir Waves Ship Positions

Bow Kiso

Last reported at 2017-Aug-26 22:11 UTC. Time now 2017-Sep-21 03:37 UTC.
Position N 28°44' E 032°55'.
Warning: this ship's position is 25 days out of date.

Length 170 m; draft 11.3 m.

Type: Ship (hazmat cat C). MMSI: 356958000.

Date/timePositionNaut miles runAvg speedWind from/ knotsBaromVisibWave heightAir tempDewpointWater temp
2017-Aug-26 22:11N 28°44' E 032°55'313.0
2017-Aug-26 21:56N 28°47' E 032°53'613.5
2017-Aug-26 21:30N 28°52' E 032°51'713.7
2017-Aug-26 20:59N 28°59' E 032°48'143 6.0
2017-Aug-25 21:06N 31°20' E 032°23'1 5.9
2017-Aug-25 20:56N 31°21' E 032°23'16 1.6
2017-Aug-25 11:07N 31°33' E 032°11'111.5
2017-Aug-25 11:00N 31°34' E 032°10'  
2017-Aug-22 14:41N 36°25' E 014°40'414.1
2017-Aug-22 14:25N 36°26' E 014°35'614.1
2017-Aug-22 13:58N 36°27' E 014°27'714.2
2017-Aug-22 13:30N 36°30' E 014°20'714.2
2017-Aug-22 13:00N 36°32' E 014°11'714.1
2017-Aug-22 12:30N 36°34' E 014°03'714.2
2017-Aug-22 12:00N 36°35' E 013°54'814.0
2017-Aug-22 11:28N 36°38' E 013°45'714.0
2017-Aug-22 10:57N 36°41' E 013°37'614.0
2017-Aug-22 10:30N 36°42' E 013°29'713.9
2017-Aug-22 09:58N 36°44' E 013°21'51213.2
2017-Aug-20 19:16N 37°04' E 002°41'312.9
2017-Aug-20 19:00N 37°04' E 002°37'11712.8
2017-Aug-20 09:50N 36°42' E 000°13'3213.3
2017-Aug-20 07:24N 36°37' W 000°27'713.1
2017-Aug-20 06:54N 36°36' W 000°35'813.1
2017-Aug-20 06:15N 36°33' W 000°45'2913.0
2017-Aug-20 04:02N 36°28' W 001°21'213.1
2017-Aug-20 03:54N 36°28' W 001°23'4213.7
2017-Aug-20 00:53N 36°21' W 002°14'2213.7
2017-Aug-19 23:14N 36°18' W 002°41'313.6
2017-Aug-19 23:00N 36°17' W 002°45'713.1
2017-Aug-19 22:29N 36°16' W 002°54'613.3
2017-Aug-19 22:00N 36°15' W 003°01'10714.6
2017-Aug-19 14:40N 36°01' W 005°12'811.9
2017-Aug-19 14:00N 36°05' W 005°21'3 5.1
2017-Aug-19 13:30N 36°07' W 005°22'0 0.2
2017-Aug-19 13:00N 36°07' W 005°22'0 0.0
2017-Aug-19 12:30N 36°07' W 005°22'0 0.1
2017-Aug-19 12:00N 36°07' W 005°22'0 0.0
2017-Aug-19 11:27N 36°07' W 005°22'0 0.1
2017-Aug-19 11:00N 36°07' W 005°22'0 0.0
2017-Aug-19 10:27N 36°07' W 005°22'0 0.0
2017-Aug-19 08:21N 36°07' W 005°22'0 0.2
2017-Aug-19 07:39N 36°07' W 005°22'0 0.2
2017-Aug-19 07:27N 36°07' W 005°22'2 2.7
2017-Aug-19 06:52N 36°06' W 005°22'2 6.8
2017-Aug-19 06:31N 36°05' W 005°19'3 5.2
2017-Aug-19 06:00N 36°03' W 005°17'4 8.5
2017-Aug-19 05:31N 35°60' W 005°19'612.4
2017-Aug-19 05:00N 35°58' W 005°26'713.7
2017-Aug-19 04:30N 35°56' W 005°35'915.0
2017-Aug-19 03:54N 35°55' W 005°46'614.4
2017-Aug-19 03:29N 35°55' W 005°53'814.5
2017-Aug-19 02:55N 35°54' W 006°03'614.7
2017-Aug-19 02:31N 35°53' W 006°10'1313.9
2017-Aug-19 01:37N 35°53' W 006°26'113.2
2017-Aug-19 01:31N 35°53' W 006°27'713.1
2017-Aug-19 00:58N 35°53' W 006°36'1013.0
2017-Aug-19 00:15N 35°52' W 006°48'413.1
2017-Aug-18 23:55N 35°53' W 006°53'513.4
2017-Aug-18 23:31N 35°54' W 006°60'713.1
2017-Aug-18 23:01N 35°54' W 007°08'612.7
2017-Aug-18 22:30N 35°54' W 007°16'612.6
2017-Aug-18 22:00N 35°55' W 007°24'1712.6
2017-Aug-18 20:40N 35°56' W 007°44'212.4
2017-Aug-18 20:30N 35°55' W 007°42'713.6
2017-Aug-18 19:57N 35°54' W 007°33'6 8.7
2017-Aug-18 19:16N 35°55' W 007°40'813.3
2017-Aug-18 18:38N 35°56' W 007°50'213.8
2017-Aug-18 18:30N 35°56' W 007°53'1013.6
2017-Aug-18 17:48N 35°57' W 008°05'413.6
2017-Aug-18 17:30N 35°57' W 008°09'713.5
2017-Aug-18 17:00N 35°56' W 008°18'713.4
2017-Aug-18 16:30N 35°57' W 008°26'3413.1
2017-Aug-18 13:57N 35°60' W 009°07'613.1
2017-Aug-18 13:29N 36°01' W 009°14'613.2
2017-Aug-18 13:00N 36°02' W 009°22'813.3
2017-Aug-18 12:24N 36°05' W 009°31'613.5
2017-Aug-18 11:59N 36°07' W 009°38'1413.4
2017-Aug-18 10:58N 36°11' W 009°54'613.2
2017-Aug-18 10:30N 36°13' W 010°01'713.2
2017-Aug-18 09:59N 36°15' W 010°09'2413.4
2017-Aug-18 08:11N 36°23' W 010°38'313.4
2017-Aug-18 07:58N 36°24' W 010°41'4213.2
2017-Aug-18 04:48N 36°37' W 011°30'413.0
2017-Aug-18 04:29N 36°38' W 011°35'813.4
2017-Aug-18 03:53N 36°41' W 011°45'513.3
2017-Aug-18 03:30N 36°42' W 011°51'713.0
2017-Aug-18 02:56N 36°45' W 011°60'813.0
2017-Aug-18 02:18N 36°47' W 012°10'413.2
2017-Aug-18 01:59N 36°48' W 012°14'713.2
2017-Aug-18 01:25N 36°51' W 012°23'613.2
2017-Aug-18 00:59N 36°52' W 012°30'1013.3
2017-Aug-18 00:14N 36°55' W 012°42'313.4
2017-Aug-18 00:00N 36°56' W 012°46'713.3
2017-Aug-17 23:30N 36°58' W 012°54'713.2
2017-Aug-17 23:00N 37°00' W 013°02'713.3
2017-Aug-17 22:29N 37°02' W 013°10'713.4
2017-Aug-17 21:58N 37°04' W 013°19'613.4
2017-Aug-17 21:30N 37°05' W 013°26'913.5
2017-Aug-17 20:48N 37°09' W 013°37'12413.7
2017-Aug-17 11:45N 37°40' W 016°08'713.9
2017-Aug-17 11:16N 37°42' W 016°16'613.9
2017-Aug-17 10:48N 37°43' W 016°24'1313.8
2017-Aug-17 09:53N 37°47' W 016°39'514.1
2017-Aug-17 09:30N 37°48' W 016°46'714.0
2017-Aug-17 09:00N 37°50' W 016°54'1914.1
2017-Aug-17 07:39N 37°55' W 017°17'214.4
2017-Aug-17 07:29N 37°56' W 017°20'714.1
2017-Aug-17 07:00N 37°57' W 017°29'4913.9
2017-Aug-17 03:30N 38°09' W 018°29'1113.7
2017-Aug-17 02:44N 38°11' W 018°42'  
Track history (hours):
 
Tides and Currents Weather Stations Pressure Air Temp Water Temp Dewpoint Dewpoint Depression Visibility Wind Speed Wind Dir Waves Ship Positions

Bow Kiso

Last reported at 2017-Aug-26 22:11 UTC. Time now 2017-Sep-21 03:37 UTC.
Position N 28°44' E 032°55'.
Warning: this ship's position is 25 days out of date.

Length 170 m; draft 11.3 m.

Type: Ship (hazmat cat C). MMSI: 356958000.

Date/timePositionNaut miles runAvg speedWind from/ knotsBaromVisibWave heightAir tempDewpointWater temp
2017-Aug-26 22:11N 28°44' E 032°55'313.0
2017-Aug-26 21:56N 28°47' E 032°53'613.5
2017-Aug-26 21:30N 28°52' E 032°51'713.7
2017-Aug-26 20:59N 28°59' E 032°48'143 6.0
2017-Aug-25 21:06N 31°20' E 032°23'1 5.9
2017-Aug-25 20:56N 31°21' E 032°23'16 1.6
2017-Aug-25 11:07N 31°33' E 032°11'111.5
2017-Aug-25 11:00N 31°34' E 032°10'  
2017-Aug-22 14:41N 36°25' E 014°40'414.1
2017-Aug-22 14:25N 36°26' E 014°35'614.1
2017-Aug-22 13:58N 36°27' E 014°27'714.2
2017-Aug-22 13:30N 36°30' E 014°20'714.2
2017-Aug-22 13:00N 36°32' E 014°11'714.1
2017-Aug-22 12:30N 36°34' E 014°03'714.2
2017-Aug-22 12:00N 36°35' E 013°54'814.0
2017-Aug-22 11:28N 36°38' E 013°45'714.0
2017-Aug-22 10:57N 36°41' E 013°37'614.0
2017-Aug-22 10:30N 36°42' E 013°29'713.9
2017-Aug-22 09:58N 36°44' E 013°21'51213.2
2017-Aug-20 19:16N 37°04' E 002°41'312.9
2017-Aug-20 19:00N 37°04' E 002°37'11712.8
2017-Aug-20 09:50N 36°42' E 000°13'3213.3
2017-Aug-20 07:24N 36°37' W 000°27'713.1
2017-Aug-20 06:54N 36°36' W 000°35'813.1
2017-Aug-20 06:15N 36°33' W 000°45'2913.0
2017-Aug-20 04:02N 36°28' W 001°21'213.1
2017-Aug-20 03:54N 36°28' W 001°23'4213.7
2017-Aug-20 00:53N 36°21' W 002°14'2213.7
2017-Aug-19 23:14N 36°18' W 002°41'313.6
2017-Aug-19 23:00N 36°17' W 002°45'713.1
2017-Aug-19 22:29N 36°16' W 002°54'613.3
2017-Aug-19 22:00N 36°15' W 003°01'10714.6
2017-Aug-19 14:40N 36°01' W 005°12'811.9
2017-Aug-19 14:00N 36°05' W 005°21'3 5.1
2017-Aug-19 13:30N 36°07' W 005°22'0 0.2
2017-Aug-19 13:00N 36°07' W 005°22'0 0.0
2017-Aug-19 12:30N 36°07' W 005°22'0 0.1
2017-Aug-19 12:00N 36°07' W 005°22'0 0.0
2017-Aug-19 11:27N 36°07' W 005°22'0 0.1
2017-Aug-19 11:00N 36°07' W 005°22'0 0.0
2017-Aug-19 10:27N 36°07' W 005°22'0 0.0
2017-Aug-19 08:21N 36°07' W 005°22'0 0.2
2017-Aug-19 07:39N 36°07' W 005°22'0 0.2
2017-Aug-19 07:27N 36°07' W 005°22'2 2.7
2017-Aug-19 06:52N 36°06' W 005°22'2 6.8
2017-Aug-19 06:31N 36°05' W 005°19'3 5.2
2017-Aug-19 06:00N 36°03' W 005°17'4 8.5
2017-Aug-19 05:31N 35°60' W 005°19'612.4
2017-Aug-19 05:00N 35°58' W 005°26'713.7
2017-Aug-19 04:30N 35°56' W 005°35'915.0
2017-Aug-19 03:54N 35°55' W 005°46'614.4
2017-Aug-19 03:29N 35°55' W 005°53'814.5
2017-Aug-19 02:55N 35°54' W 006°03'614.7
2017-Aug-19 02:31N 35°53' W 006°10'1313.9
2017-Aug-19 01:37N 35°53' W 006°26'113.2
2017-Aug-19 01:31N 35°53' W 006°27'713.1
2017-Aug-19 00:58N 35°53' W 006°36'1013.0
2017-Aug-19 00:15N 35°52' W 006°48'413.1
2017-Aug-18 23:55N 35°53' W 006°53'513.4
2017-Aug-18 23:31N 35°54' W 006°60'713.1
2017-Aug-18 23:01N 35°54' W 007°08'612.7
2017-Aug-18 22:30N 35°54' W 007°16'612.6
2017-Aug-18 22:00N 35°55' W 007°24'1712.6
2017-Aug-18 20:40N 35°56' W 007°44'212.4
2017-Aug-18 20:30N 35°55' W 007°42'713.6
2017-Aug-18 19:57N 35°54' W 007°33'6 8.7
2017-Aug-18 19:16N 35°55' W 007°40'813.3
2017-Aug-18 18:38N 35°56' W 007°50'213.8
2017-Aug-18 18:30N 35°56' W 007°53'1013.6
2017-Aug-18 17:48N 35°57' W 008°05'413.6
2017-Aug-18 17:30N 35°57' W 008°09'713.5
2017-Aug-18 17:00N 35°56' W 008°18'713.4
2017-Aug-18 16:30N 35°57' W 008°26'3413.1
2017-Aug-18 13:57N 35°60' W 009°07'613.1
2017-Aug-18 13:29N 36°01' W 009°14'613.2
2017-Aug-18 13:00N 36°02' W 009°22'813.3
2017-Aug-18 12:24N 36°05' W 009°31'613.5
2017-Aug-18 11:59N 36°07' W 009°38'1413.4
2017-Aug-18 10:58N 36°11' W 009°54'613.2
2017-Aug-18 10:30N 36°13' W 010°01'713.2
2017-Aug-18 09:59N 36°15' W 010°09'2413.4
2017-Aug-18 08:11N 36°23' W 010°38'313.4
2017-Aug-18 07:58N 36°24' W 010°41'4213.2
2017-Aug-18 04:48N 36°37' W 011°30'413.0
2017-Aug-18 04:29N 36°38' W 011°35'813.4
2017-Aug-18 03:53N 36°41' W 011°45'513.3
2017-Aug-18 03:30N 36°42' W 011°51'713.0
2017-Aug-18 02:56N 36°45' W 011°60'813.0
2017-Aug-18 02:18N 36°47' W 012°10'413.2
2017-Aug-18 01:59N 36°48' W 012°14'713.2
2017-Aug-18 01:25N 36°51' W 012°23'613.2
2017-Aug-18 00:59N 36°52' W 012°30'1013.3
2017-Aug-18 00:14N 36°55' W 012°42'313.4
2017-Aug-18 00:00N 36°56' W 012°46'713.3
2017-Aug-17 23:30N 36°58' W 012°54'713.2
2017-Aug-17 23:00N 37°00' W 013°02'713.3
2017-Aug-17 22:29N 37°02' W 013°10'713.4
2017-Aug-17 21:58N 37°04' W 013°19'613.4
2017-Aug-17 21:30N 37°05' W 013°26'913.5
2017-Aug-17 20:48N 37°09' W 013°37'12413.7
2017-Aug-17 11:45N 37°40' W 016°08'713.9
2017-Aug-17 11:16N 37°42' W 016°16'613.9
2017-Aug-17 10:48N 37°43' W 016°24'1313.8
2017-Aug-17 09:53N 37°47' W 016°39'514.1
2017-Aug-17 09:30N 37°48' W 016°46'714.0
2017-Aug-17 09:00N 37°50' W 016°54'1914.1
2017-Aug-17 07:39N 37°55' W 017°17'214.4
2017-Aug-17 07:29N 37°56' W 017°20'714.1
2017-Aug-17 07:00N 37°57' W 017°29'4913.9
2017-Aug-17 03:30N 38°09' W 018°29'1113.7
2017-Aug-17 02:44N 38°11' W 018°42'  

Dump ship's entire track history